createdAt,value
2022-09-23T00:00:20.514Z,0.00
2022-09-23T00:01:20.584Z,0.00
2022-09-23T00:02:20.524Z,0.00
2022-09-23T00:03:20.467Z,0.00
2022-09-23T00:04:20.462Z,0.00
2022-09-23T00:05:20.457Z,0.00
2022-09-23T00:06:20.474Z,0.00
2022-09-23T00:07:20.430Z,0.00
2022-09-23T00:08:20.416Z,0.00
2022-09-23T00:09:20.420Z,0.00
2022-09-23T00:10:20.408Z,0.00
2022-09-23T00:11:20.389Z,0.00
2022-09-23T00:12:20.380Z,0.00
2022-09-23T00:13:20.374Z,0.00
2022-09-23T00:14:20.362Z,0.00
2022-09-23T00:15:20.364Z,0.00
2022-09-23T00:16:20.546Z,0.00
2022-09-23T00:17:20.340Z,0.00
2022-09-23T00:18:20.326Z,0.00
2022-09-23T00:19:20.316Z,0.00
2022-09-23T00:20:20.314Z,0.00
2022-09-23T00:21:20.299Z,0.00
2022-09-23T00:22:20.290Z,0.00
2022-09-23T00:23:20.280Z,0.00
2022-09-23T00:24:20.273Z,0.00
2022-09-23T00:25:20.273Z,0.00
2022-09-23T00:26:20.249Z,0.00
2022-09-23T00:27:20.241Z,0.00
2022-09-23T00:28:20.234Z,0.00
2022-09-23T00:29:20.264Z,0.00
2022-09-23T00:30:20.242Z,0.00
2022-09-23T00:31:20.390Z,0.00
2022-09-23T00:32:20.197Z,0.00
2022-09-23T00:33:20.189Z,0.00
2022-09-23T00:34:20.190Z,0.00
2022-09-23T00:35:20.169Z,0.00
2022-09-23T00:36:20.165Z,0.00
2022-09-23T00:37:20.154Z,0.00
2022-09-23T00:38:20.137Z,0.00
2022-09-23T00:39:20.142Z,0.00
2022-09-23T00:40:20.171Z,0.00
2022-09-23T00:41:20.107Z,0.00
2022-09-23T00:42:20.099Z,0.00
2022-09-23T00:43:20.093Z,0.00
2022-09-23T00:44:20.093Z,0.00
2022-09-23T00:45:20.077Z,0.00
2022-09-23T00:46:20.150Z,0.00
2022-09-23T00:47:20.068Z,0.00
2022-09-23T00:48:20.053Z,0.00
2022-09-23T00:49:20.099Z,0.00
2022-09-23T00:50:20.027Z,0.00
2022-09-23T00:51:20.018Z,0.00
2022-09-23T00:52:20.029Z,0.00
2022-09-23T00:53:19.996Z,0.00
2022-09-23T00:54:19.999Z,0.00
2022-09-23T00:55:19.986Z,0.00
2022-09-23T00:56:19.963Z,0.00
2022-09-23T00:57:19.965Z,0.00
2022-09-23T00:58:19.946Z,0.00
2022-09-23T00:59:19.954Z,0.00
2022-09-23T01:00:19.934Z,0.00
2022-09-23T01:01:19.972Z,0.00
2022-09-23T01:02:19.947Z,0.00
2022-09-23T01:03:19.899Z,0.00
2022-09-23T01:04:19.888Z,0.00
2022-09-23T01:05:19.891Z,0.00
2022-09-23T01:06:19.868Z,0.00
2022-09-23T01:07:19.893Z,0.00
2022-09-23T01:08:19.852Z,0.00
2022-09-23T01:09:19.853Z,0.00
2022-09-23T01:10:19.836Z,0.00
2022-09-23T01:11:19.821Z,0.00
2022-09-23T01:12:19.815Z,0.00
2022-09-23T01:13:19.799Z,0.00
2022-09-23T01:14:19.797Z,0.00
2022-09-23T01:15:19.798Z,0.00
2022-09-23T01:16:19.828Z,0.00
2022-09-23T01:17:19.764Z,0.00
2022-09-23T01:18:19.754Z,0.00
2022-09-23T01:19:19.746Z,0.00
2022-09-23T01:20:19.747Z,0.00
2022-09-23T01:21:19.725Z,0.00
2022-09-23T01:22:19.719Z,0.00
2022-09-23T01:23:19.710Z,0.00
2022-09-23T01:24:19.700Z,0.00
2022-09-23T01:25:19.702Z,0.00
2022-09-23T01:26:19.688Z,0.00
2022-09-23T01:27:19.671Z,0.00
2022-09-23T01:28:19.664Z,0.00
2022-09-23T01:29:19.653Z,0.00
2022-09-23T01:30:19.654Z,0.00
2022-09-23T01:31:51.537Z,0.00
2022-09-23T01:32:19.625Z,0.00
2022-09-23T01:33:19.634Z,0.00
2022-09-23T01:34:20.606Z,0.00
2022-09-23T01:35:19.604Z,0.00
2022-09-23T01:36:19.585Z,0.00
2022-09-23T01:37:19.576Z,0.00
2022-09-23T01:38:19.569Z,0.00
2022-09-23T01:39:19.553Z,0.00
2022-09-23T01:40:19.616Z,0.00
2022-09-23T01:41:19.537Z,0.00
2022-09-23T01:42:19.533Z,0.00
2022-09-23T01:43:19.522Z,0.00
2022-09-23T01:44:19.512Z,0.00
2022-09-23T01:45:19.512Z,0.00
2022-09-23T01:46:19.495Z,0.00
2022-09-23T01:47:19.481Z,0.00
2022-09-23T01:48:19.528Z,0.00
2022-09-23T01:49:19.464Z,0.00
2022-09-23T01:50:19.458Z,0.00
2022-09-23T01:51:19.443Z,0.00
2022-09-23T01:52:19.431Z,0.00
2022-09-23T01:53:19.422Z,0.00
2022-09-23T01:54:19.415Z,0.00
2022-09-23T01:55:19.421Z,0.00
2022-09-23T01:56:19.393Z,0.00
2022-09-23T01:57:19.380Z,0.00
2022-09-23T01:58:19.372Z,0.00
2022-09-23T01:59:19.373Z,0.00
2022-09-23T02:00:19.349Z,0.00
2022-09-23T02:01:19.378Z,0.00
2022-09-23T02:02:19.467Z,0.00
2022-09-23T02:03:19.318Z,0.00
2022-09-23T02:04:19.316Z,0.00
2022-09-23T02:05:19.302Z,0.00
2022-09-23T02:06:19.291Z,0.00
2022-09-23T02:07:19.279Z,0.00
2022-09-23T02:08:19.266Z,0.00
2022-09-23T02:09:19.273Z,0.00
2022-09-23T02:10:19.250Z,0.00
2022-09-23T02:11:19.236Z,0.00
2022-09-23T02:12:19.229Z,0.00
2022-09-23T02:13:19.221Z,0.00
2022-09-23T02:14:19.320Z,0.00
2022-09-23T02:15:19.199Z,0.00
2022-09-23T02:16:19.231Z,0.00
2022-09-23T02:17:19.203Z,0.00
2022-09-23T02:18:19.168Z,0.00
2022-09-23T02:19:19.175Z,0.00
2022-09-23T02:20:19.151Z,0.00
2022-09-23T02:21:19.147Z,0.00
2022-09-23T02:22:19.133Z,0.00
2022-09-23T02:23:19.121Z,0.00
2022-09-23T02:24:19.126Z,0.00
2022-09-23T02:25:19.112Z,0.00
2022-09-23T02:26:19.091Z,0.00
2022-09-23T02:27:19.082Z,0.00
2022-09-23T02:28:19.072Z,0.00
2022-09-23T02:29:19.094Z,0.00
2022-09-23T02:30:19.075Z,0.00
2022-09-23T02:31:19.039Z,0.00
2022-09-23T02:32:19.027Z,0.00
2022-09-23T02:33:19.022Z,0.00
2022-09-23T02:34:19.010Z,0.00
2022-09-23T02:35:19.018Z,0.00
2022-09-23T02:36:18.993Z,0.00
2022-09-23T02:37:18.980Z,0.00
2022-09-23T02:38:18.974Z,0.00
2022-09-23T02:39:18.972Z,0.00
2022-09-23T02:40:19.017Z,0.00
2022-09-23T02:41:18.945Z,0.00
2022-09-23T02:42:18.936Z,0.00
2022-09-23T02:43:18.925Z,0.00
2022-09-23T02:44:18.916Z,0.00
2022-09-23T02:45:18.921Z,0.00
2022-09-23T02:46:18.957Z,0.00
2022-09-23T02:47:18.888Z,0.00
2022-09-23T02:48:18.877Z,0.00
2022-09-23T02:49:18.869Z,0.00
2022-09-23T02:50:18.890Z,0.00
2022-09-23T02:51:18.847Z,0.00
2022-09-23T02:52:18.841Z,0.00
2022-09-23T02:53:18.836Z,0.00
2022-09-23T02:54:18.818Z,0.00
2022-09-23T02:55:18.818Z,0.00
2022-09-23T02:56:18.800Z,0.00
2022-09-23T02:57:18.785Z,0.00
2022-09-23T02:58:18.782Z,0.00
2022-09-23T02:59:18.774Z,0.00
2022-09-23T03:00:18.773Z,0.00
2022-09-23T03:01:18.866Z,0.00
2022-09-23T03:02:18.874Z,0.00
2022-09-23T03:03:18.737Z,0.00
2022-09-23T03:04:18.724Z,0.00
2022-09-23T03:05:18.729Z,0.00
2022-09-23T03:06:18.709Z,0.00
2022-09-23T03:07:18.715Z,0.00
2022-09-23T03:08:18.685Z,0.00
2022-09-23T03:09:18.676Z,0.00
2022-09-23T03:10:18.683Z,0.00
2022-09-23T03:11:18.657Z,0.00
2022-09-23T03:12:18.646Z,0.00
2022-09-23T03:13:18.649Z,0.00
2022-09-23T03:14:18.636Z,0.00
2022-09-23T03:15:18.631Z,0.00
2022-09-23T03:16:18.690Z,0.00
2022-09-23T03:17:18.603Z,0.00
2022-09-23T03:18:18.594Z,0.00
2022-09-23T03:19:18.580Z,0.00
2022-09-23T03:20:18.585Z,0.00
2022-09-23T03:21:18.564Z,0.00
2022-09-23T03:22:18.561Z,0.00
2022-09-23T03:23:18.545Z,0.00
2022-09-23T03:24:18.534Z,0.00
2022-09-23T03:25:18.535Z,0.00
2022-09-23T03:26:18.513Z,0.00
2022-09-23T03:27:18.507Z,0.00
2022-09-23T03:28:18.499Z,0.00
2022-09-23T03:29:18.490Z,0.00
2022-09-23T03:30:18.490Z,0.00
2022-09-23T03:31:18.503Z,0.00
2022-09-23T03:32:18.462Z,0.00
2022-09-23T03:33:18.453Z,0.00
2022-09-23T03:34:18.445Z,0.00
2022-09-23T03:35:18.445Z,0.00
2022-09-23T03:36:18.421Z,0.00
2022-09-23T03:37:18.414Z,0.00
2022-09-23T03:38:18.402Z,0.00
2022-09-23T03:39:18.393Z,0.00
2022-09-23T03:40:18.441Z,0.00
2022-09-23T03:41:18.406Z,0.00
2022-09-23T03:42:18.364Z,0.00
2022-09-23T03:43:18.353Z,0.00
2022-09-23T03:44:18.345Z,0.00
2022-09-23T03:45:18.345Z,0.00
2022-09-23T03:46:18.372Z,0.00
2022-09-23T03:47:18.313Z,0.00
2022-09-23T03:48:18.303Z,0.00
2022-09-23T03:49:18.315Z,0.00
2022-09-23T03:50:18.294Z,0.00
2022-09-23T03:51:18.274Z,0.00
2022-09-23T03:52:18.262Z,0.00
2022-09-23T03:53:18.252Z,0.00
2022-09-23T03:54:18.245Z,0.00
2022-09-23T03:55:18.243Z,0.00
2022-09-23T03:56:18.221Z,0.00
2022-09-23T03:57:18.213Z,0.00
2022-09-23T03:58:18.200Z,0.00
2022-09-23T03:59:18.195Z,0.00
2022-09-23T04:00:18.193Z,0.00
2022-09-23T04:01:18.212Z,0.00
2022-09-23T04:02:18.234Z,0.00
2022-09-23T04:03:18.152Z,0.00
2022-09-23T04:04:18.151Z,0.00
2022-09-23T04:05:18.150Z,0.00
2022-09-23T04:06:18.194Z,0.00
2022-09-23T04:07:18.109Z,0.00
2022-09-23T04:08:18.098Z,0.00
2022-09-23T04:09:18.087Z,0.00
2022-09-23T04:10:18.111Z,0.00
2022-09-23T04:11:18.091Z,0.00
2022-09-23T04:12:18.057Z,0.00
2022-09-23T04:13:18.052Z,0.00
2022-09-23T04:14:18.043Z,0.00
2022-09-23T04:15:18.038Z,0.00
2022-09-23T04:16:18.077Z,0.00
2022-09-23T04:17:18.009Z,0.00
2022-09-23T04:18:18.012Z,0.00
2022-09-23T04:19:17.985Z,0.00
2022-09-23T04:20:17.989Z,0.00
2022-09-23T04:21:17.967Z,0.00
2022-09-23T04:22:17.954Z,0.00
2022-09-23T04:23:17.947Z,0.00
2022-09-23T04:24:17.936Z,0.00
2022-09-23T04:25:17.941Z,0.00
2022-09-23T04:26:17.916Z,0.00
2022-09-23T04:27:17.913Z,0.00
2022-09-23T04:28:17.898Z,0.00
2022-09-23T04:29:17.890Z,0.00
2022-09-23T04:30:17.893Z,0.00
2022-09-23T04:31:17.898Z,0.00
2022-09-23T04:32:17.863Z,0.00
2022-09-23T04:33:17.846Z,0.00
2022-09-23T04:34:17.839Z,0.00
2022-09-23T04:35:17.853Z,0.00
2022-09-23T04:36:17.822Z,0.00
2022-09-23T04:37:17.805Z,0.00
2022-09-23T04:38:17.796Z,0.00
2022-09-23T04:39:17.796Z,0.00
2022-09-23T04:40:17.829Z,0.00
2022-09-23T04:41:17.770Z,0.00
2022-09-23T04:42:17.760Z,0.00
2022-09-23T04:43:17.747Z,0.00
2022-09-23T04:44:18.741Z,0.00
2022-09-23T04:45:17.733Z,0.00
2022-09-23T04:46:17.780Z,0.00
2022-09-23T04:47:17.707Z,0.00
2022-09-23T04:48:17.700Z,0.00
2022-09-23T04:49:17.691Z,0.00
2022-09-23T04:50:17.736Z,0.00
2022-09-23T04:51:17.690Z,0.00
2022-09-23T04:52:17.662Z,0.00
2022-09-23T04:53:17.650Z,0.00
2022-09-23T04:54:17.640Z,0.00
2022-09-23T04:55:17.637Z,0.00
2022-09-23T04:56:17.637Z,0.00
2022-09-23T04:57:17.614Z,0.00
2022-09-23T04:58:17.605Z,0.00
2022-09-23T04:59:17.595Z,0.00
2022-09-23T05:00:17.587Z,0.00
2022-09-23T05:01:17.636Z,0.00
2022-09-23T05:02:17.605Z,0.00
2022-09-23T05:03:17.552Z,5.62
2022-09-23T05:04:17.543Z,5.62
2022-09-23T05:05:17.532Z,5.62
2022-09-23T05:06:17.539Z,5.62
2022-09-23T05:07:17.516Z,5.62
2022-09-23T05:08:17.504Z,5.62
2022-09-23T05:09:17.494Z,5.62
2022-09-23T05:10:17.498Z,5.62
2022-09-23T05:11:17.483Z,5.62
2022-09-23T05:12:17.460Z,5.62
2022-09-23T05:13:17.454Z,5.62
2022-09-23T05:14:17.442Z,5.62
2022-09-23T05:15:17.451Z,11.25
2022-09-23T05:16:17.518Z,11.25
2022-09-23T05:17:17.430Z,11.25
2022-09-23T05:18:20.735Z,11.25
2022-09-23T05:19:18.393Z,11.25
2022-09-23T05:20:17.397Z,11.25
2022-09-23T05:21:17.391Z,11.25
2022-09-23T05:22:17.357Z,16.88
2022-09-23T05:23:17.359Z,16.88
2022-09-23T05:24:17.342Z,16.88
2022-09-23T05:25:17.341Z,16.88
2022-09-23T05:26:17.325Z,16.88
2022-09-23T05:27:17.312Z,22.50
2022-09-23T05:28:17.351Z,22.50
2022-09-23T05:29:17.295Z,22.50
2022-09-23T05:30:17.292Z,22.50
2022-09-23T05:31:19.910Z,28.12
2022-09-23T05:32:18.260Z,28.12
2022-09-23T05:33:17.254Z,28.12
2022-09-23T05:34:17.243Z,28.12
2022-09-23T05:35:17.242Z,28.12
2022-09-23T05:36:17.222Z,33.75
2022-09-23T05:37:17.222Z,33.75
2022-09-23T05:38:17.201Z,39.38
2022-09-23T05:39:17.192Z,39.38
2022-09-23T05:40:17.248Z,39.38
2022-09-23T05:41:17.193Z,45.00
2022-09-23T05:42:17.161Z,45.00
2022-09-23T05:43:17.233Z,45.00
2022-09-23T05:44:17.158Z,45.00
2022-09-23T05:45:17.144Z,50.62
2022-09-23T05:46:17.180Z,50.62
2022-09-23T05:47:17.109Z,50.62
2022-09-23T05:48:17.097Z,50.62
2022-09-23T05:49:17.097Z,50.62
2022-09-23T05:50:17.100Z,56.25
2022-09-23T05:51:17.071Z,56.25
2022-09-23T05:52:17.073Z,56.25
2022-09-23T05:53:17.053Z,56.25
2022-09-23T05:54:17.039Z,61.88
2022-09-23T05:55:17.042Z,61.88
2022-09-23T05:56:17.023Z,67.50
2022-09-23T05:57:17.015Z,73.12
2022-09-23T05:58:17.004Z,73.12
2022-09-23T05:59:16.992Z,78.75
2022-09-23T06:00:17.003Z,78.75
2022-09-23T06:01:16.977Z,78.75
2022-09-23T06:02:17.000Z,84.38
2022-09-23T06:03:16.997Z,84.38
2022-09-23T06:04:16.946Z,84.38
2022-09-23T06:05:16.946Z,90.00
2022-09-23T06:06:16.931Z,90.00
2022-09-23T06:07:16.912Z,95.62
2022-09-23T06:08:16.967Z,101.25
2022-09-23T06:09:16.898Z,101.25
2022-09-23T06:10:16.894Z,106.88
2022-09-23T06:11:16.879Z,106.88
2022-09-23T06:12:16.867Z,112.50
2022-09-23T06:13:16.859Z,112.50
2022-09-23T06:14:16.849Z,112.50
2022-09-23T06:15:16.916Z,112.50
2022-09-23T06:16:16.878Z,112.50
2022-09-23T06:17:16.819Z,106.88
2022-09-23T06:18:16.801Z,112.50
2022-09-23T06:19:16.799Z,112.50
2022-09-23T06:20:16.800Z,112.50
2022-09-23T06:21:16.776Z,118.12
2022-09-23T06:22:16.760Z,118.12
2022-09-23T06:23:16.755Z,118.12
2022-09-23T06:24:20.543Z,118.12
2022-09-23T06:25:18.747Z,118.12
2022-09-23T06:26:17.764Z,118.12
2022-09-23T06:27:16.714Z,118.12
2022-09-23T06:28:16.705Z,118.12
2022-09-23T06:29:16.691Z,118.12
2022-09-23T06:30:16.698Z,118.12
2022-09-23T06:31:16.759Z,118.12
2022-09-23T06:32:16.665Z,118.12
2022-09-23T06:33:18.792Z,118.12
2022-09-23T06:34:17.882Z,118.12
2022-09-23T06:35:26.085Z,118.12
2022-09-23T06:36:36.762Z,118.12
2022-09-23T06:37:20.672Z,118.12
2022-09-23T06:38:17.603Z,118.12
2022-09-23T06:39:16.685Z,112.50
2022-09-23T06:40:16.641Z,118.12
2022-09-23T06:41:16.573Z,118.12
2022-09-23T06:42:16.564Z,123.75
2022-09-23T06:43:16.554Z,118.12
2022-09-23T06:44:16.594Z,112.50
2022-09-23T06:45:17.549Z,123.75
2022-09-23T06:46:16.637Z,118.12
2022-09-23T06:47:16.546Z,106.88
2022-09-23T06:48:16.504Z,106.88
2022-09-23T06:49:16.495Z,101.25
2022-09-23T06:50:16.494Z,101.25
2022-09-23T06:51:16.469Z,101.25
2022-09-23T06:52:16.460Z,101.25
2022-09-23T06:53:16.452Z,101.25
2022-09-23T06:54:16.449Z,101.25
2022-09-23T06:55:16.450Z,101.25
2022-09-23T06:56:16.422Z,101.25
2022-09-23T06:57:16.410Z,101.25
2022-09-23T06:58:16.400Z,101.25
2022-09-23T06:59:16.391Z,101.25
2022-09-23T07:00:16.386Z,106.88
2022-09-23T07:01:16.487Z,106.88
2022-09-23T07:02:16.461Z,106.88
2022-09-23T07:03:16.346Z,106.88
2022-09-23T07:04:16.336Z,112.50
2022-09-23T07:05:16.346Z,112.50
2022-09-23T07:06:16.323Z,112.50
2022-09-23T07:07:16.303Z,112.50
2022-09-23T07:08:16.295Z,112.50
2022-09-23T07:09:16.284Z,112.50
2022-09-23T07:10:16.286Z,112.50
2022-09-23T07:11:16.267Z,118.12
2022-09-23T07:12:16.255Z,129.38
2022-09-23T07:13:16.517Z,140.62
2022-09-23T07:14:17.232Z,180.00
2022-09-23T07:15:16.237Z,174.38
2022-09-23T07:16:16.308Z,151.88
2022-09-23T07:17:16.206Z,168.75
2022-09-23T07:18:16.199Z,241.88
2022-09-23T07:19:16.191Z,258.75
2022-09-23T07:20:16.187Z,247.50
2022-09-23T07:21:16.188Z,281.25
2022-09-23T07:22:16.155Z,315.00
2022-09-23T07:23:16.144Z,213.75
2022-09-23T07:24:16.137Z,174.38
2022-09-23T07:25:16.135Z,174.38
2022-09-23T07:26:16.121Z,168.75
2022-09-23T07:27:16.111Z,185.62
2022-09-23T07:28:16.097Z,185.62
2022-09-23T07:29:16.112Z,202.50
2022-09-23T07:30:23.892Z,225.00
2022-09-23T07:31:29.869Z,180.00
2022-09-23T07:32:18.095Z,168.75
2022-09-23T07:33:29.266Z,191.25
2022-09-23T07:34:18.038Z,185.62
2022-09-23T07:35:16.043Z,196.88
2022-09-23T07:36:16.030Z,196.88
2022-09-23T07:37:16.003Z,208.12
2022-09-23T07:38:15.996Z,219.38
2022-09-23T07:39:15.983Z,219.38
2022-09-23T07:40:16.031Z,236.25
2022-09-23T07:41:15.965Z,326.25
2022-09-23T07:42:15.955Z,331.88
2022-09-23T07:43:15.942Z,230.62
2022-09-23T07:44:15.935Z,180.00
2022-09-23T07:45:15.934Z,168.75
2022-09-23T07:46:15.942Z,185.62
2022-09-23T07:47:15.907Z,196.88
2022-09-23T07:48:15.898Z,196.88
2022-09-23T07:49:15.892Z,247.50
2022-09-23T07:50:15.885Z,286.88
2022-09-23T07:51:15.865Z,382.50
2022-09-23T07:52:15.854Z,320.62
2022-09-23T07:53:15.871Z,180.00
2022-09-23T07:54:15.840Z,168.75
2022-09-23T07:55:20.279Z,163.12
2022-09-23T07:56:17.818Z,157.50
2022-09-23T07:57:15.804Z,163.12
2022-09-23T07:58:15.799Z,168.75
2022-09-23T07:59:15.787Z,180.00
2022-09-23T08:00:15.790Z,191.25
2022-09-23T08:01:15.802Z,191.25
2022-09-23T08:02:15.812Z,191.25
2022-09-23T08:03:15.822Z,196.88
2022-09-23T08:04:15.731Z,208.12
2022-09-23T08:05:15.727Z,219.38
2022-09-23T08:06:15.714Z,230.62
2022-09-23T08:07:15.708Z,320.62
2022-09-23T08:08:15.680Z,416.25
2022-09-23T08:09:16.681Z,736.88
2022-09-23T08:10:15.679Z,1001.25
2022-09-23T08:11:15.668Z,922.50
2022-09-23T08:12:16.262Z,438.75
2022-09-23T08:13:16.654Z,455.62
2022-09-23T08:14:15.630Z,742.50
2022-09-23T08:15:15.634Z,714.38
2022-09-23T08:16:15.664Z,393.75
2022-09-23T08:17:15.598Z,253.12
2022-09-23T08:18:15.593Z,230.62
2022-09-23T08:19:15.582Z,236.25
2022-09-23T08:20:15.583Z,236.25
2022-09-23T08:21:15.564Z,230.62
2022-09-23T08:22:15.602Z,230.62
2022-09-23T08:23:15.545Z,225.00
2022-09-23T08:24:15.533Z,225.00
2022-09-23T08:25:15.678Z,230.62
2022-09-23T08:26:20.926Z,247.50
2022-09-23T08:27:17.502Z,264.38
2022-09-23T08:28:15.491Z,309.38
2022-09-23T08:29:15.486Z,371.25
2022-09-23T08:30:15.479Z,551.25
2022-09-23T08:31:15.549Z,680.62
2022-09-23T08:32:15.454Z,506.25
2022-09-23T08:33:19.625Z,320.62
2022-09-23T08:34:16.430Z,618.75
2022-09-23T08:35:15.434Z,427.50
2022-09-23T08:36:15.408Z,225.00
2022-09-23T08:37:15.402Z,213.75
2022-09-23T08:38:15.394Z,253.12
2022-09-23T08:39:15.385Z,365.62
2022-09-23T08:40:15.429Z,258.75
2022-09-23T08:41:16.006Z,219.38
2022-09-23T08:42:15.355Z,208.12
2022-09-23T08:43:15.342Z,202.50
2022-09-23T08:44:15.332Z,202.50
2022-09-23T08:45:15.324Z,213.75
2022-09-23T08:46:16.353Z,219.38
2022-09-23T08:47:15.303Z,219.38
2022-09-23T08:48:15.290Z,219.38
2022-09-23T08:49:15.281Z,213.75
2022-09-23T08:50:15.279Z,225.00
2022-09-23T08:51:15.254Z,225.00
2022-09-23T08:52:15.250Z,225.00
2022-09-23T08:53:15.237Z,219.38
2022-09-23T08:54:15.225Z,219.38
2022-09-23T08:55:15.236Z,219.38
2022-09-23T08:56:15.207Z,219.38
2022-09-23T08:57:15.197Z,219.38
2022-09-23T08:58:25.006Z,219.38
2022-09-23T08:59:17.178Z,219.38
2022-09-23T09:00:15.177Z,225.00
2022-09-23T09:01:15.252Z,225.00
2022-09-23T09:02:15.195Z,219.38
2022-09-23T09:03:15.157Z,219.38
2022-09-23T09:04:15.121Z,225.00
2022-09-23T09:05:15.124Z,225.00
2022-09-23T09:06:15.111Z,225.00
2022-09-23T09:08:17.087Z,225.00
2022-09-23T09:09:15.075Z,230.62
2022-09-23T09:10:15.096Z,230.62
2022-09-23T09:11:15.055Z,230.62
2022-09-23T09:12:15.044Z,236.25
2022-09-23T09:13:15.030Z,241.88
2022-09-23T09:14:15.056Z,241.88
2022-09-23T09:15:15.024Z,241.88
2022-09-23T09:16:15.070Z,241.88
2022-09-23T09:17:14.996Z,236.25
2022-09-23T09:18:14.981Z,236.25
2022-09-23T09:19:14.971Z,236.25
2022-09-23T09:20:14.978Z,236.25
2022-09-23T09:21:14.967Z,236.25
2022-09-23T09:22:14.981Z,236.25
2022-09-23T09:23:14.928Z,241.88
2022-09-23T09:24:14.922Z,236.25
2022-09-23T09:25:14.918Z,241.88
2022-09-23T09:26:14.894Z,241.88
2022-09-23T09:27:14.911Z,241.88
2022-09-23T09:28:14.883Z,247.50
2022-09-23T09:29:34.119Z,247.50
2022-09-23T09:30:16.895Z,247.50
2022-09-23T09:31:14.916Z,253.12
2022-09-23T09:32:14.832Z,253.12
2022-09-23T09:33:14.820Z,253.12
2022-09-23T09:34:14.817Z,253.12
2022-09-23T09:35:14.825Z,253.12
2022-09-23T09:36:14.792Z,253.12
2022-09-23T09:37:14.786Z,258.75
2022-09-23T09:38:14.773Z,258.75
2022-09-23T09:39:14.806Z,258.75
2022-09-23T09:40:14.845Z,258.75
2022-09-23T09:41:14.749Z,253.12
2022-09-23T09:42:14.737Z,253.12
2022-09-23T09:43:14.724Z,253.12
2022-09-23T09:44:14.713Z,258.75
2022-09-23T09:45:14.712Z,253.12
2022-09-23T09:46:14.753Z,247.50
2022-09-23T09:47:14.695Z,241.88
2022-09-23T09:48:14.670Z,241.88
2022-09-23T09:49:14.666Z,236.25
2022-09-23T09:50:14.769Z,241.88
2022-09-23T09:51:14.641Z,253.12
2022-09-23T09:52:14.680Z,247.50
2022-09-23T09:53:14.569Z,270.00
2022-09-23T09:54:14.553Z,275.62
2022-09-23T09:55:14.552Z,286.88
2022-09-23T09:56:14.533Z,298.12
2022-09-23T09:57:14.541Z,303.75
2022-09-23T09:58:14.510Z,315.00
2022-09-23T09:59:14.503Z,298.12
2022-09-23T10:00:14.510Z,320.62
2022-09-23T10:01:14.543Z,331.88
2022-09-23T10:02:14.475Z,331.88
2022-09-23T10:03:14.460Z,337.50
2022-09-23T10:04:14.491Z,343.12
2022-09-23T10:05:14.451Z,360.00
2022-09-23T10:06:14.428Z,348.75
2022-09-23T10:07:14.477Z,360.00
2022-09-23T10:08:14.410Z,388.12
2022-09-23T10:09:14.399Z,376.88
2022-09-23T10:10:28.927Z,382.50
2022-09-23T10:11:16.385Z,376.88
2022-09-23T10:12:14.370Z,376.88
2022-09-23T10:13:14.395Z,365.62
2022-09-23T10:14:14.347Z,371.25
2022-09-23T10:15:14.353Z,376.88
2022-09-23T10:16:14.406Z,388.12
2022-09-23T10:17:15.387Z,388.12
2022-09-23T10:18:14.409Z,405.00
2022-09-23T10:19:14.409Z,410.62
2022-09-23T10:20:14.381Z,421.88
2022-09-23T10:21:14.424Z,433.12
2022-09-23T10:22:14.302Z,455.62
2022-09-23T10:23:14.334Z,483.75
2022-09-23T10:24:14.270Z,506.25
2022-09-23T10:25:14.367Z,551.25
2022-09-23T10:26:14.287Z,585.00
2022-09-23T10:27:14.271Z,624.38
2022-09-23T10:28:14.292Z,658.12
2022-09-23T10:29:14.297Z,697.50
2022-09-23T10:30:14.278Z,736.88
2022-09-23T10:31:14.328Z,669.38
2022-09-23T10:32:14.175Z,708.75
2022-09-23T10:33:14.165Z,776.25
2022-09-23T10:34:14.160Z,804.38
2022-09-23T10:35:14.156Z,753.75
2022-09-23T10:36:14.141Z,759.38
2022-09-23T10:37:14.135Z,731.25
2022-09-23T10:38:14.125Z,618.75
2022-09-23T10:39:14.116Z,517.50
2022-09-23T10:40:14.155Z,523.12
2022-09-23T10:41:14.098Z,523.12
2022-09-23T10:42:14.085Z,483.75
2022-09-23T10:43:14.081Z,438.75
2022-09-23T10:44:14.065Z,472.50
2022-09-23T10:45:14.066Z,742.50
2022-09-23T10:46:14.085Z,736.88
2022-09-23T10:47:14.040Z,697.50
2022-09-23T10:48:14.028Z,590.62
2022-09-23T10:49:14.021Z,618.75
2022-09-23T10:50:14.034Z,742.50
2022-09-23T10:51:14.003Z,759.38
2022-09-23T10:52:13.996Z,714.38
2022-09-23T10:53:13.993Z,635.62
2022-09-23T10:54:13.983Z,675.00
2022-09-23T10:55:14.003Z,652.50
2022-09-23T10:56:13.954Z,590.62
2022-09-23T10:57:13.945Z,601.88
2022-09-23T10:58:13.937Z,562.50
2022-09-23T10:59:13.925Z,500.62
2022-09-23T11:00:13.930Z,624.38
2022-09-23T11:01:13.956Z,663.75
2022-09-23T11:02:13.897Z,686.25
2022-09-23T11:03:13.887Z,675.00
2022-09-23T11:04:14.332Z,725.62
2022-09-23T11:05:13.883Z,720.00
2022-09-23T11:06:13.861Z,748.12
2022-09-23T11:07:13.853Z,686.25
2022-09-23T11:08:13.840Z,635.62
2022-09-23T11:09:13.832Z,680.62
2022-09-23T11:10:29.178Z,731.25
2022-09-23T11:11:15.810Z,731.25
2022-09-23T11:12:13.802Z,753.75
2022-09-23T11:13:13.792Z,748.12
2022-09-23T11:14:13.785Z,731.25
2022-09-23T11:15:13.786Z,731.25
2022-09-23T11:16:13.830Z,686.25
2022-09-23T11:17:13.758Z,663.75
2022-09-23T11:18:13.746Z,528.75
2022-09-23T11:19:13.755Z,500.62
2022-09-23T11:20:13.862Z,444.38
2022-09-23T11:21:13.716Z,376.88
2022-09-23T11:22:13.708Z,376.88
2022-09-23T11:23:13.700Z,365.62
2022-09-23T11:24:13.694Z,405.00
2022-09-23T11:25:13.693Z,433.12
2022-09-23T11:26:13.673Z,472.50
2022-09-23T11:27:13.660Z,478.12
2022-09-23T11:28:13.653Z,489.38
2022-09-23T11:29:13.652Z,500.62
2022-09-23T11:30:13.795Z,500.62
2022-09-23T11:31:13.720Z,506.25
2022-09-23T11:32:13.617Z,517.50
2022-09-23T11:33:13.608Z,500.62
2022-09-23T11:34:13.591Z,466.88
2022-09-23T11:35:13.596Z,483.75
2022-09-23T11:36:13.574Z,450.00
2022-09-23T11:37:13.569Z,433.12
2022-09-23T11:38:13.555Z,455.62
2022-09-23T11:39:13.565Z,444.38
2022-09-23T11:40:13.711Z,416.25
2022-09-23T11:41:13.529Z,388.12
2022-09-23T11:42:13.516Z,388.12
2022-09-23T11:43:13.512Z,405.00
2022-09-23T11:44:13.521Z,416.25
2022-09-23T11:45:13.506Z,405.00
2022-09-23T11:46:13.511Z,393.75
2022-09-23T11:47:13.473Z,382.50
2022-09-23T11:48:13.464Z,376.88
2022-09-23T11:49:13.455Z,360.00
2022-09-23T11:50:13.463Z,348.75
2022-09-23T11:51:13.436Z,348.75
2022-09-23T11:52:13.438Z,337.50
2022-09-23T11:53:13.419Z,331.88
2022-09-23T11:54:16.150Z,331.88
2022-09-23T11:55:21.606Z,331.88
2022-09-23T11:56:25.592Z,331.88
2022-09-23T11:57:14.375Z,348.75
2022-09-23T11:58:23.016Z,376.88
2022-09-23T11:59:15.417Z,376.88
2022-09-23T12:00:13.360Z,360.00
2022-09-23T12:01:13.342Z,376.88
2022-09-23T12:02:20.382Z,405.00
2022-09-23T12:03:15.481Z,427.50
2022-09-23T12:04:19.539Z,433.12
2022-09-23T12:05:15.392Z,450.00
2022-09-23T12:06:13.288Z,427.50
2022-09-23T12:07:13.282Z,421.88
2022-09-23T12:08:13.271Z,410.62
2022-09-23T12:09:13.270Z,433.12
2022-09-23T12:10:13.248Z,416.25
2022-09-23T12:11:13.242Z,410.62
2022-09-23T12:12:13.230Z,399.38
2022-09-23T12:13:13.225Z,371.25
2022-09-23T12:14:13.223Z,365.62
2022-09-23T12:15:13.203Z,348.75
2022-09-23T12:16:13.248Z,354.38
2022-09-23T12:17:13.183Z,354.38
2022-09-23T12:18:13.181Z,337.50
2022-09-23T12:19:13.177Z,326.25
2022-09-23T12:20:13.153Z,309.38
2022-09-23T12:21:27.447Z,292.50
2022-09-23T12:22:15.141Z,292.50
2022-09-23T12:23:13.117Z,286.88
2022-09-23T12:24:18.445Z,281.25
2022-09-23T12:25:15.113Z,281.25
2022-09-23T12:26:13.098Z,281.25
2022-09-23T12:27:13.126Z,281.25
2022-09-23T12:28:13.081Z,281.25
2022-09-23T12:29:13.091Z,281.25
2022-09-23T12:30:13.061Z,286.88
2022-09-23T12:31:13.154Z,298.12
2022-09-23T12:32:13.096Z,298.12
2022-09-23T12:33:13.034Z,298.12
2022-09-23T12:34:13.025Z,309.38
2022-09-23T12:35:13.024Z,303.75
2022-09-23T12:36:13.005Z,309.38
2022-09-23T12:37:12.997Z,309.38
2022-09-23T12:38:13.076Z,309.38
2022-09-23T12:39:12.979Z,303.75
2022-09-23T12:40:13.228Z,298.12
2022-09-23T12:41:12.954Z,298.12
2022-09-23T12:42:12.955Z,298.12
2022-09-23T12:43:12.943Z,292.50
2022-09-23T12:44:12.944Z,286.88
2022-09-23T12:45:13.934Z,281.25
2022-09-23T12:46:12.962Z,281.25
2022-09-23T12:47:12.901Z,281.25
2022-09-23T12:48:12.891Z,281.25
2022-09-23T12:49:12.906Z,281.25
2022-09-23T12:50:16.677Z,275.62